Time;durP1;ratioP1;P1;durP2;ratioP2;P2;SDS_P1;SDS_P2;PMS_P1;PMS_P2;Temp;Humidity;BMP_temperature;BMP_pressure;BME280_temperature;BME280_humidity;BME280_pressure;Samples;Min_cycle;Max_cycle;Signal;HPM_P1;HPM_P2
2023/10/14 00:01:27;;;;;;;3.40;0.85;;;17.30;84.00;;;;;;5071117;28;20032;-68
2023/10/14 00:03:55;;;;;;;2.60;0.90;;;17.30;84.00;;;;;;5084339;28;20043;-68
2023/10/14 00:06:22;;;;;;;3.10;1.10;;;17.30;84.00;;;;;;5078802;28;20054;-68
2023/10/14 00:08:50;;;;;;;2.15;0.90;;;17.30;84.00;;;;;;5077968;28;20165;-68
2023/10/14 00:11:16;;;;;;;3.92;1.00;;;17.30;84.10;;;;;;5085407;28;20052;-68
2023/10/14 00:14:27;;;;;;;5.65;1.30;;;17.30;84.10;;;;;;5081302;28;20058;-68
2023/10/14 00:16:41;;;;;;;4.35;1.13;;;17.20;84.10;;;;;;5077338;28;20051;-67
2023/10/14 00:19:09;;;;;;;3.50;1.10;;;17.20;84.10;;;;;;5074364;28;20021;-67
2023/10/14 00:21:36;;;;;;;4.30;1.30;;;17.20;84.10;;;;;;5085299;28;20089;-68
2023/10/14 00:24:06;;;;;;;3.97;1.08;;;17.20;84.10;;;;;;5079001;28;20364;-67
2023/10/14 00:26:33;;;;;;;2.47;0.90;;;17.20;84.00;;;;;;5086131;28;20028;-68
2023/10/14 00:31:40;;;;;;;3.05;1.00;;;17.20;84.10;;;;;;5089626;28;20361;-68
2023/10/14 00:34:07;;;;;;;5.32;1.20;;;17.20;84.10;;;;;;5086083;28;20035;-67
2023/10/14 00:36:34;;;;;;;2.15;0.90;;;17.20;84.10;;;;;;5085394;28;20028;-67
2023/10/14 00:39:12;;;;;;;5.28;1.20;;;17.20;84.80;;;;;;5089859;28;20039;-68
2023/10/14 00:41:44;;;;;;;7.18;1.50;;;17.20;84.20;;;;;;5079239;28;20020;-67
2023/10/14 00:44:10;;;;;;;4.45;1.20;;;17.20;84.20;;;;;;5077103;28;20044;-67
2023/10/14 00:46:44;;;;;;;4.45;1.30;;;17.20;84.20;;;;;;5075186;28;20047;-67
2023/10/14 00:49:13;;;;;;;5.10;1.00;;;17.20;84.20;;;;;;5079058;28;20043;-67
2023/10/14 00:51:44;;;;;;;3.17;1.20;;;17.10;84.20;;;;;;5083588;28;20115;-68
2023/10/14 00:54:11;;;;;;;3.17;1.10;;;17.10;84.30;;;;;;5078018;28;20364;-68
2023/10/14 00:56:40;;;;;;;3.35;1.00;;;17.10;84.10;;;;;;5079718;28;20037;-67
2023/10/14 00:59:08;;;;;;;5.43;1.17;;;17.10;84.10;;;;;;5076137;28;20036;-68
2023/10/14 01:01:55;;;;;;;3.78;1.17;;;17.20;84.00;;;;;;5076829;28;20178;-68
2023/10/14 01:04:31;;;;;;;4.75;1.00;;;17.10;83.80;;;;;;5081289;28;20029;-67
2023/10/14 01:09:55;;;;;;;3.55;1.02;;;17.10;83.60;;;;;;5088907;28;20016;-67
2023/10/14 01:12:37;;;;;;;3.55;1.20;;;17.00;83.40;;;;;;5078033;28;20040;-67
2023/10/14 01:15:14;;;;;;;3.40;1.00;;;17.00;83.40;;;;;;5080882;28;20494;-68
2023/10/14 01:17:42;;;;;;;5.28;1.40;;;16.90;83.20;;;;;;5076337;28;20049;-67
2023/10/14 01:22:40;;;;;;;3.95;1.23;;;16.90;83.00;;;;;;5089047;28;20020;-67
2023/10/14 01:25:12;;;;;;;4.00;1.40;;;16.80;82.90;;;;;;5084369;28;20352;-67
2023/10/14 01:27:42;;;;;;;4.80;1.35;;;16.70;82.70;;;;;;5075129;28;20035;-68
2023/10/14 01:30:18;;;;;;;2.88;0.80;;;16.70;82.80;;;;;;5096693;28;20043;-67
2023/10/14 01:35:31;;;;;;;4.57;1.30;;;16.70;82.70;;;;;;5115498;28;20036;-67
2023/10/14 01:37:58;;;;;;;6.43;1.35;;;16.70;82.60;;;;;;5114076;28;20027;-68
2023/10/14 01:40:38;;;;;;;3.92;1.20;;;16.60;82.60;;;;;;5113156;28;20444;-67
2023/10/14 01:43:10;;;;;;;5.43;1.90;;;16.70;82.50;;;;;;5114708;28;20040;-68
2023/10/14 01:48:25;;;;;;;7.63;1.60;;;16.60;82.50;;;;;;5082443;28;20109;-67
2023/10/14 01:50:56;;;;;;;4.63;1.08;;;16.60;82.60;;;;;;5103996;28;20035;-68
2023/10/14 01:53:34;;;;;;;4.22;1.30;;;16.60;82.50;;;;;;5106091;28;20024;-68
2023/10/14 01:56:01;;;;;;;4.18;1.40;;;16.60;82.40;;;;;;5105365;28;20032;-67
2023/10/14 01:58:29;;;;;;;5.40;1.55;;;16.60;82.30;;;;;;5116514;28;20024;-68
2023/10/14 02:01:00;;;;;;;6.65;1.55;;;16.50;82.10;;;;;;5103767;28;20024;-68
2023/10/14 02:03:33;;;;;;;6.47;1.70;;;16.50;82.00;;;;;;5078790;28;20451;-67
2023/10/14 02:06:00;;;;;;;4.68;1.30;;;16.50;82.00;;;;;;5085270;28;20059;-67
2023/10/14 02:08:26;;;;;;;9.18;1.73;;;16.50;81.90;;;;;;5078376;28;20032;-67
2023/10/14 02:10:53;;;;;;;7.05;1.80;;;16.50;81.80;;;;;;5075708;28;20039;-67
2023/10/14 02:13:21;;;;;;;7.00;1.80;;;16.40;81.70;;;;;;5079296;28;20040;-67
2023/10/14 02:15:48;;;;;;;5.70;1.65;;;16.40;81.80;;;;;;5083507;28;20036;-68
2023/10/14 02:18:21;;;;;;;8.18;1.60;;;16.40;81.70;;;;;;5079840;28;20055;-67
2023/10/14 02:20:57;;;;;;;8.23;2.00;;;16.40;81.50;;;;;;5082010;28;20024;-67
2023/10/14 02:23:27;;;;;;;6.82;1.52;;;16.40;81.50;;;;;;5080873;28;20025;-68
2023/10/14 02:25:56;;;;;;;6.07;1.48;;;16.30;81.30;;;;;;5082136;28;20036;-68
2023/10/14 02:28:39;;;;;;;11.23;2.35;;;16.30;81.40;;;;;;5079649;28;20527;-68
2023/10/14 02:31:11;;;;;;;8.75;1.42;;;16.30;81.40;;;;;;5074148;28;20028;-68
2023/10/14 02:33:36;;;;;;;8.27;1.80;;;16.30;81.40;;;;;;5080982;28;20028;-67
2023/10/14 02:36:02;;;;;;;6.90;1.50;;;16.30;81.30;;;;;;5080763;28;20032;-67
2023/10/14 02:38:30;;;;;;;7.93;1.80;;;16.30;81.20;;;;;;5092044;28;20062;-68
2023/10/14 02:40:56;;;;;;;9.73;2.50;;;16.20;81.10;;;;;;5076974;28;20024;-68
2023/10/14 02:43:22;;;;;;;7.95;1.92;;;16.20;81.10;;;;;;5080574;28;20021;-68
2023/10/14 02:45:48;;;;;;;6.70;1.70;;;16.20;81.10;;;;;;5079481;28;20107;-67
2023/10/14 02:48:18;;;;;;;10.68;1.88;;;16.20;81.10;;;;;;5077715;28;20021;-67
2023/10/14 02:50:50;;;;;;;5.80;1.90;;;16.10;81.20;;;;;;5074850;28;20029;-67
2023/10/14 02:53:21;;;;;;;8.25;1.88;;;16.10;81.10;;;;;;5080593;28;20283;-67
2023/10/14 02:55:57;;;;;;;8.27;2.35;;;16.00;81.00;;;;;;5080016;28;20016;-67
2023/10/14 02:58:23;;;;;;;9.48;1.90;;;16.00;80.90;;;;;;5080704;28;20376;-67
2023/10/14 03:00:59;;;;;;;8.98;2.38;;;16.00;80.90;;;;;;5074563;28;20103;-67
2023/10/14 03:03:24;;;;;;;7.20;1.75;;;15.90;80.70;;;;;;5085462;28;20043;-67
2023/10/14 03:05:53;;;;;;;7.78;2.00;;;16.00;80.70;;;;;;5078045;28;20012;-67
2023/10/14 03:08:20;;;;;;;8.45;2.22;;;15.90;80.60;;;;;;5102933;28;20449;-68
2023/10/14 03:10:53;;;;;;;8.88;1.90;;;15.80;80.40;;;;;;5073446;28;20058;-68
2023/10/14 03:13:19;;;;;;;9.23;1.98;;;15.80;80.50;;;;;;5084632;28;20024;-68
2023/10/14 03:15:47;;;;;;;8.88;2.08;;;15.80;80.40;;;;;;5073399;28;20039;-67
2023/10/14 03:18:16;;;;;;;7.40;1.95;;;15.80;80.20;;;;;;5068276;28;20176;-68
2023/10/14 03:20:58;;;;;;;5.70;1.73;;;15.80;80.10;;;;;;5074081;28;20040;-67
2023/10/14 03:23:25;;;;;;;7.13;1.65;;;15.70;80.10;;;;;;5085643;28;20039;-68
2023/10/14 03:26:10;;;;;;;8.07;1.83;;;15.70;80.10;;;;;;5074735;28;20020;-67
2023/10/14 03:28:37;;;;;;;6.40;2.08;;;15.70;80.00;;;;;;5085725;28;20024;-67
2023/10/14 03:31:08;;;;;;;10.43;1.95;;;15.60;79.90;;;;;;5090581;28;20032;-67
2023/10/14 03:33:43;;;;;;;6.47;1.73;;;15.60;79.90;;;;;;5069073;28;20114;-67
2023/10/14 03:36:15;;;;;;;8.38;1.95;;;15.60;79.80;;;;;;5073192;28;20460;-67
2023/10/14 03:38:46;;;;;;;7.78;1.80;;;15.60;79.70;;;;;;5086117;28;20032;-67
2023/10/14 03:41:21;;;;;;;9.57;1.83;;;15.60;79.80;;;;;;5087248;28;20066;-67
2023/10/14 03:46:32;;;;;;;5.70;1.70;;;15.50;80.30;;;;;;5094740;28;20050;-67
2023/10/14 03:49:11;;;;;;;8.48;2.10;;;15.40;79.40;;;;;;5088815;28;20016;-67
2023/10/14 03:51:41;;;;;;;9.15;2.20;;;15.40;79.20;;;;;;5084446;28;20108;-68
2023/10/14 03:54:08;;;;;;;9.43;1.80;;;15.40;79.20;;;;;;5092129;28;20047;-67
2023/10/14 03:56:36;;;;;;;6.47;1.65;;;15.40;79.10;;;;;;5092513;28;20365;-67
2023/10/14 03:59:03;;;;;;;6.45;1.52;;;15.40;78.90;;;;;;5091952;28;20048;-67
2023/10/14 04:04:14;;;;;;;8.32;2.10;;;15.30;78.50;;;;;;5092134;28;20027;-68
2023/10/14 04:06:41;;;;;;;11.05;1.75;;;15.30;78.50;;;;;;5094876;28;20085;-67
2023/10/14 04:09:09;;;;;;;8.30;2.10;;;15.20;78.40;;;;;;5086572;28;20532;-68
2023/10/14 04:11:38;;;;;;;8.40;1.63;;;15.20;78.30;;;;;;5088446;28;20432;-67
2023/10/14 04:14:07;;;;;;;11.07;2.28;;;15.20;78.40;;;;;;5081279;28;20107;-67
2023/10/14 04:16:48;;;;;;;10.52;2.22;;;15.20;78.40;;;;;;5088823;28;20056;-67
2023/10/14 04:19:27;;;;;;;7.40;1.70;;;15.20;78.20;;;;;;5085161;28;20032;-68
2023/10/14 04:21:59;;;;;;;9.50;1.75;;;15.20;78.30;;;;;;5091357;28;20032;-67
2023/10/14 04:27:16;;;;;;;8.65;1.67;;;15.00;78.00;;;;;;5081840;28;20036;-67
2023/10/14 04:29:50;;;;;;;7.88;1.88;;;15.00;78.00;;;;;;5089434;28;20119;-68
2023/10/14 04:32:25;;;;;;;6.43;1.85;;;15.00;78.10;;;;;;5088674;28;20152;-68
2023/10/14 04:34:54;;;;;;;6.78;2.05;;;15.00;78.00;;;;;;5091384;28;20039;-67
2023/10/14 04:37:21;;;;;;;6.97;1.70;;;15.00;77.90;;;;;;5096581;28;20040;-67
2023/10/14 04:39:47;;;;;;;8.75;1.90;;;15.00;77.80;;;;;;5088027;28;20348;-67
2023/10/14 04:44:54;;;;;;;8.25;1.65;;;14.90;77.60;;;;;;5084432;28;20020;-68
2023/10/14 04:47:55;;;;;;;7.93;2.20;;;14.90;77.60;;;;;;5080246;28;20108;-67
2023/10/14 04:50:14;;;;;;;6.90;1.45;;;14.80;77.60;;;;;;5090802;28;20367;-67
2023/10/14 04:52:41;;;;;;;12.40;2.13;;;14.90;77.60;;;;;;5108026;28;20027;-67
2023/10/14 04:55:20;;;;;;;7.72;1.98;;;14.90;77.50;;;;;;5100671;28;20028;-68
2023/10/14 05:00:43;;;;;;;8.07;1.60;;;14.80;77.40;;;;;;5087379;28;20039;-67
2023/10/14 05:03:12;;;;;;;8.82;1.85;;;14.80;77.40;;;;;;5089444;28;20064;-68
2023/10/14 05:05:41;;;;;;;7.03;1.67;;;14.80;77.30;;;;;;5076012;28;20059;-67
2023/10/14 05:08:12;;;;;;;9.77;1.90;;;14.70;77.30;;;;;;5071819;28;20024;-68
2023/10/14 05:10:42;;;;;;;9.83;2.10;;;14.70;77.20;;;;;;5074043;28;20039;-68
2023/10/14 05:13:09;;;;;;;9.07;2.03;;;14.70;77.30;;;;;;5087115;28;20329;-68
2023/10/14 05:15:53;;;;;;;7.93;1.67;;;14.60;77.30;;;;;;5085047;28;20036;-67
2023/10/14 05:18:28;;;;;;;6.75;1.63;;;14.70;77.20;;;;;;5071917;28;20115;-67
2023/10/14 05:21:20;;;;;;;10.15;2.20;;;14.70;77.30;;;;;;5086776;28;20338;-67
2023/10/14 05:23:46;;;;;;;9.20;2.22;;;14.60;77.10;;;;;;5081370;28;20035;-68
2023/10/14 05:26:14;;;;;;;9.35;2.00;;;14.60;77.10;;;;;;5093545;28;20016;-68
2023/10/14 05:28:42;;;;;;;7.68;2.05;;;14.60;77.00;;;;;;5094573;28;20024;-67
2023/10/14 05:31:08;;;;;;;8.77;1.95;;;14.60;77.00;;;;;;5087785;28;20031;-68
2023/10/14 05:33:37;;;;;;;9.70;2.50;;;14.50;77.00;;;;;;5091885;28;20032;-67
2023/10/14 05:36:05;;;;;;;8.63;1.85;;;14.50;76.90;;;;;;5086642;28;20131;-67
2023/10/14 05:38:31;;;;;;;10.50;1.85;;;14.50;76.90;;;;;;5070337;28;20067;-68
2023/10/14 05:41:00;;;;;;;11.88;1.75;;;14.50;76.90;;;;;;5092261;28;20032;-67
2023/10/14 05:43:27;;;;;;;8.50;1.85;;;14.50;76.80;;;;;;5068735;28;20024;-67
2023/10/14 05:45:53;;;;;;;9.05;2.42;;;14.50;76.90;;;;;;5077292;28;20020;-67
2023/10/14 05:48:26;;;;;;;8.32;2.20;;;14.50;76.80;;;;;;5087399;28;20036;-67
2023/10/14 05:50:57;;;;;;;8.68;2.10;;;14.50;76.80;;;;;;5075930;28;20033;-67
2023/10/14 05:53:26;;;;;;;9.88;2.28;;;14.50;76.80;;;;;;5076105;28;20024;-67
2023/10/14 05:56:09;;;;;;;9.32;2.08;;;14.40;76.90;;;;;;5089035;28;20035;-67
2023/10/14 05:58:36;;;;;;;5.90;2.00;;;14.40;76.80;;;;;;5075027;28;20058;-67
2023/10/14 06:01:10;;;;;;;15.10;2.50;;;14.40;76.90;;;;;;5089223;28;20449;-67
2023/10/14 06:03:37;;;;;;;9.10;2.17;;;14.40;76.90;;;;;;5088973;28;20024;-67
2023/10/14 06:06:09;;;;;;;8.90;2.13;;;14.40;76.90;;;;;;5087597;28;20036;-67
2023/10/14 06:08:39;;;;;;;8.10;2.05;;;14.40;76.80;;;;;;5084684;28;20433;-67
2023/10/14 06:11:05;;;;;;;7.95;2.03;;;14.40;76.80;;;;;;5090329;28;20107;-67
2023/10/14 06:13:35;;;;;;;9.27;1.98;;;14.40;76.70;;;;;;5088208;28;20079;-69
2023/10/14 06:16:09;;;;;;;8.10;2.03;;;14.40;76.70;;;;;;5086826;28;20383;-68
2023/10/14 06:18:47;;;;;;;8.18;2.45;;;14.40;76.70;;;;;;5098013;28;20033;-69
2023/10/14 06:21:15;;;;;;;6.43;1.58;;;14.40;76.70;;;;;;5078924;28;20035;-69
2023/10/14 06:23:47;;;;;;;10.65;2.35;;;14.40;76.70;;;;;;5087630;28;20028;-69
2023/10/14 06:26:17;;;;;;;8.82;2.03;;;14.40;76.60;;;;;;5086864;28;20038;-67
2023/10/14 06:28:48;;;;;;;9.18;2.20;;;14.50;76.60;;;;;;5084992;28;20085;-68
2023/10/14 06:31:14;;;;;;;11.10;2.30;;;14.40;76.60;;;;;;5088917;28;20063;-68
2023/10/14 06:33:43;;;;;;;12.48;2.25;;;14.40;76.70;;;;;;5086285;28;20058;-68
2023/10/14 06:36:14;;;;;;;11.32;2.08;;;14.40;76.70;;;;;;5084145;28;20577;-67
2023/10/14 06:38:44;;;;;;;9.48;2.47;;;14.50;76.70;;;;;;5084674;28;20038;-67
2023/10/14 06:41:16;;;;;;;8.95;2.50;;;14.50;76.60;;;;;;5086150;28;20097;-67
2023/10/14 06:43:43;;;;;;;8.15;2.30;;;14.50;76.60;;;;;;5071380;28;20464;-67
2023/10/14 06:46:11;;;;;;;12.05;2.25;;;14.50;76.50;;;;;;5090235;28;20357;-66
2023/10/14 06:48:41;;;;;;;10.95;2.47;;;14.50;77.10;;;;;;5088115;28;20116;-68
2023/10/14 06:51:09;;;;;;;10.75;2.00;;;14.50;76.40;;;;;;5091038;28;20027;-67
2023/10/14 06:53:35;;;;;;;9.60;2.38;;;14.50;76.30;;;;;;5087206;28;20024;-67
2023/10/14 06:56:01;;;;;;;8.65;1.90;;;14.60;76.30;;;;;;5081912;28;20081;-68
2023/10/14 06:58:28;;;;;;;9.85;2.40;;;14.50;76.10;;;;;;5087521;28;20031;-68
2023/10/14 07:00:57;;;;;;;11.00;2.08;;;14.60;76.10;;;;;;5084796;28;20104;-68
2023/10/14 07:03:23;;;;;;;9.10;2.15;;;14.60;76.00;;;;;;5087484;28;20711;-68
2023/10/14 07:05:56;;;;;;;7.25;1.98;;;14.60;76.00;;;;;;5089451;28;20020;-68
2023/10/14 07:08:27;;;;;;;6.32;2.17;;;14.60;76.00;;;;;;5070673;28;20016;-68
2023/10/14 07:10:55;;;;;;;10.48;1.98;;;14.60;75.90;;;;;;5087490;28;20020;-69
2023/10/14 07:13:23;;;;;;;7.20;1.83;;;14.70;75.90;;;;;;5086251;28;20067;-68
2023/10/14 07:15:50;;;;;;;10.88;2.20;;;14.70;75.80;;;;;;5070761;28;20026;-69
2023/10/14 07:18:23;;;;;;;13.40;2.20;;;14.70;75.70;;;;;;5068729;28;20044;-69
2023/10/14 07:21:00;;;;;;;7.55;2.03;;;14.80;75.60;;;;;;5087181;28;20077;-70
2023/10/14 07:23:26;;;;;;;10.18;2.30;;;14.80;75.50;;;;;;5094177;28;20028;-69
2023/10/14 07:25:52;;;;;;;9.23;1.77;;;14.80;75.60;;;;;;5085736;28;20086;-68
2023/10/14 07:28:18;;;;;;;10.50;2.08;;;14.80;75.70;;;;;;5060262;28;20369;-73
2023/10/14 07:30:47;;;;;;;12.95;2.30;;;14.80;75.60;;;;;;5069827;28;20028;-70
2023/10/14 07:33:14;;;;;;;7.30;2.30;;;14.80;75.50;;;;;;5091779;28;20058;-70
2023/10/14 07:35:41;;;;;;;8.00;2.13;;;14.90;75.50;;;;;;5069572;28;20074;-70
2023/10/14 07:38:08;;;;;;;9.05;2.00;;;14.90;75.50;;;;;;5085918;28;20020;-69
2023/10/14 07:40:34;;;;;;;9.68;1.70;;;14.90;75.50;;;;;;5064499;28;20033;-69
2023/10/14 07:43:08;;;;;;;10.20;2.08;;;14.90;75.30;;;;;;5091983;28;20034;-69
2023/10/14 07:45:35;;;;;;;9.73;1.77;;;15.00;75.20;;;;;;5091369;28;20039;-69
2023/10/14 07:48:09;;;;;;;8.40;1.90;;;15.00;75.10;;;;;;5088112;28;20423;-70
2023/10/14 07:50:42;;;;;;;8.85;1.65;;;15.10;75.00;;;;;;5089312;28;20428;-69
2023/10/14 07:53:13;;;;;;;12.05;2.05;;;15.10;74.80;;;;;;5078238;28;20044;-70
2023/10/14 07:55:47;;;;;;;11.25;1.80;;;15.10;74.80;;;;;;5073844;28;20020;-69
2023/10/14 07:58:18;;;;;;;9.95;2.08;;;15.20;74.70;;;;;;5089260;28;20040;-70
2023/10/14 08:00:50;;;;;;;10.40;2.53;;;15.20;74.70;;;;;;5072091;28;20349;-69
2023/10/14 08:03:20;;;;;;;9.00;1.88;;;15.30;74.60;;;;;;5086744;28;20063;-69
2023/10/14 08:05:49;;;;;;;8.32;1.83;;;15.40;74.20;;;;;;5096306;28;20352;-70
2023/10/14 08:08:16;;;;;;;6.63;1.90;;;15.40;73.90;;;;;;5088754;28;20032;-70
2023/10/14 08:10:43;;;;;;;9.65;2.47;;;15.40;73.60;;;;;;5091209;28;20081;-69
2023/10/14 08:13:09;;;;;;;9.90;2.10;;;15.50;73.30;;;;;;5090918;28;20097;-69
2023/10/14 08:15:36;;;;;;;8.13;1.77;;;15.50;73.00;;;;;;5089508;28;20074;-69
2023/10/14 08:18:06;;;;;;;13.73;2.28;;;15.50;72.80;;;;;;5083926;28;20048;-70
2023/10/14 08:20:36;;;;;;;9.38;2.28;;;15.50;72.70;;;;;;5094098;28;20035;-70
2023/10/14 08:23:09;;;;;;;8.65;1.90;;;15.70;72.60;;;;;;5088666;28;20031;-69
2023/10/14 08:25:39;;;;;;;14.07;2.75;;;15.70;72.50;;;;;;5083830;28;20031;-70
2023/10/14 08:28:11;;;;;;;12.00;2.17;;;15.80;72.30;;;;;;5086831;28;20401;-69
2023/10/14 08:30:47;;;;;;;7.97;1.98;;;15.90;71.90;;;;;;5059763;28;20032;-70
2023/10/14 08:33:13;;;;;;;8.23;2.00;;;16.00;71.90;;;;;;5086127;28;20081;-69
2023/10/14 08:35:42;;;;;;;7.95;2.58;;;16.10;71.60;;;;;;5080255;28;20034;-70
2023/10/14 08:38:17;;;;;;;10.73;2.10;;;16.20;71.20;;;;;;5076803;28;20032;-70
2023/10/14 08:40:53;;;;;;;9.77;1.95;;;16.30;71.00;;;;;;5076119;28;20040;-69
2023/10/14 08:43:21;;;;;;;8.40;2.20;;;16.50;70.80;;;;;;5085332;28;20107;-70
2023/10/14 08:45:47;;;;;;;9.77;2.53;;;16.60;70.40;;;;;;5080790;28;20021;-70
2023/10/14 08:48:18;;;;;;;10.25;2.13;;;16.70;70.00;;;;;;5077647;28;20367;-70
2023/10/14 08:50:49;;;;;;;9.73;2.13;;;16.90;69.60;;;;;;5077446;28;20386;-69
2023/10/14 08:53:16;;;;;;;9.82;2.20;;;17.00;69.50;;;;;;5081092;28;20028;-69
2023/10/14 08:55:46;;;;;;;8.70;2.03;;;17.20;69.30;;;;;;5073726;28;20848;-69
2023/10/14 08:58:15;;;;;;;10.27;2.20;;;17.30;68.90;;;;;;5096229;28;20070;-69
2023/10/14 09:00:44;;;;;;;11.45;2.28;;;17.50;68.60;;;;;;5096055;28;20020;-69
2023/10/14 09:03:11;;;;;;;11.35;2.22;;;17.60;68.00;;;;;;5081446;28;20032;-69
2023/10/14 09:05:44;;;;;;;10.68;2.30;;;17.70;67.70;;;;;;5089259;28;20342;-69
2023/10/14 09:08:15;;;;;;;12.90;2.35;;;17.80;67.50;;;;;;5090374;28;20024;-72
2023/10/14 09:10:42;;;;;;;11.40;2.40;;;17.80;67.10;;;;;;5076436;28;20118;-69
2023/10/14 09:13:13;;;;;;;9.77;2.28;;;17.90;67.00;;;;;;5082434;28;20353;-69
2023/10/14 09:15:43;;;;;;;11.25;2.42;;;18.10;66.70;;;;;;5086545;28;20646;-70
2023/10/14 09:18:14;;;;;;;13.67;2.40;;;18.20;66.30;;;;;;5075156;28;20086;-70
2023/10/14 09:20:41;;;;;;;10.05;1.80;;;18.20;66.20;;;;;;5075073;28;20121;-69
2023/10/14 09:23:44;;;;;;;10.60;2.63;;;18.10;66.50;;;;;;5074917;28;20169;-69
2023/10/14 09:26:09;;;;;;;9.77;2.38;;;18.10;66.20;;;;;;5083803;28;20473;-69
2023/10/14 09:28:40;;;;;;;10.98;2.00;;;18.20;66.00;;;;;;5084288;28;20388;-69
2023/10/14 09:31:08;;;;;;;7.00;1.70;;;18.20;65.70;;;;;;5089652;28;20459;-69
2023/10/14 09:33:41;;;;;;;12.13;2.30;;;18.30;65.40;;;;;;5090022;28;20170;-69
2023/10/14 09:36:12;;;;;;;11.73;3.08;;;18.30;65.00;;;;;;5087759;28;20024;-68
2023/10/14 09:38:39;;;;;;;8.68;2.10;;;18.30;64.70;;;;;;5089645;28;20028;-69
2023/10/14 09:41:14;;;;;;;7.78;2.13;;;18.40;64.70;;;;;;5087689;28;20031;-69
2023/10/14 09:43:42;;;;;;;10.13;2.17;;;18.40;64.40;;;;;;5086894;28;20024;-69
2023/10/14 09:46:11;;;;;;;11.35;2.17;;;18.50;64.40;;;;;;5072923;28;20069;-70
2023/10/14 09:48:37;;;;;;;9.93;2.28;;;18.70;64.00;;;;;;5090904;28;20028;-69
2023/10/14 09:51:05;;;;;;;9.15;2.00;;;18.90;63.60;;;;;;5072339;28;20038;-69
2023/10/14 09:53:36;;;;;;;9.25;2.03;;;19.00;63.40;;;;;;5089149;28;20665;-69
2023/10/14 09:56:05;;;;;;;9.68;1.92;;;19.10;63.10;;;;;;5088760;28;20032;-70
2023/10/14 09:58:46;;;;;;;9.70;2.30;;;19.30;62.80;;;;;;5091154;28;20036;-70
2023/10/14 10:01:18;;;;;;;9.82;2.25;;;19.30;61.80;;;;;;5094734;28;20028;-69
2023/10/14 10:03:57;;;;;;;9.18;2.13;;;19.30;62.00;;;;;;5076585;28;20017;-70
2023/10/14 10:06:37;;;;;;;8.65;1.80;;;19.30;61.80;;;;;;5077955;28;20035;-71
2023/10/14 10:09:27;;;;;;;7.70;1.98;;;19.40;61.30;;;;;;5079237;28;20032;-69
2023/10/14 10:11:55;;;;;;;6.88;1.80;;;19.30;61.00;;;;;;5079568;28;20055;-69
2023/10/14 10:14:22;;;;;;;9.50;2.03;;;19.20;60.80;;;;;;5075438;28;20050;-69
2023/10/14 10:16:54;;;;;;;8.23;1.70;;;19.10;60.70;;;;;;5087350;28;20040;-69
2023/10/14 10:19:43;;;;;;;6.65;1.38;;;19.20;60.10;;;;;;5075585;28;20013;-70
2023/10/14 10:22:20;;;;;;;5.72;1.40;;;19.10;59.60;;;;;;5077022;28;20528;-69
2023/10/14 10:24:47;;;;;;;7.88;1.98;;;18.90;59.60;;;;;;5080543;28;20021;-69
2023/10/14 10:27:16;;;;;;;8.98;1.83;;;18.60;59.90;;;;;;5074099;28;20093;-69
2023/10/14 10:29:49;;;;;;;5.22;1.42;;;18.40;60.00;;;;;;5085046;28;20027;-69
2023/10/14 10:32:22;;;;;;;7.28;1.63;;;18.20;59.90;;;;;;5070404;28;20023;-69
2023/10/14 10:35:06;;;;;;;5.80;1.40;;;18.00;59.30;;;;;;5088258;28;20036;-69
2023/10/14 10:37:37;;;;;;;4.20;1.23;;;17.70;59.50;;;;;;5090600;28;20148;-70
2023/10/14 10:40:10;;;;;;;4.55;1.38;;;17.50;59.60;;;;;;5089230;28;20039;-70
2023/10/14 10:42:52;;;;;;;3.35;1.10;;;17.30;59.80;;;;;;5088195;28;20016;-69
2023/10/14 10:45:20;;;;;;;4.25;0.93;;;17.10;59.90;;;;;;5087564;28;20024;-70
2023/10/14 10:47:54;;;;;;;6.88;1.33;;;17.00;60.10;;;;;;5088119;28;20118;-70
2023/10/14 10:50:28;;;;;;;5.07;1.23;;;17.00;60.10;;;;;;5062613;28;20024;-70
2023/10/14 10:53:22;;;;;;;6.38;1.58;;;17.20;59.90;;;;;;5087340;28;20024;-70
2023/10/14 10:55:51;;;;;;;7.07;1.50;;;17.40;59.80;;;;;;5088969;28;20509;-70
2023/10/14 10:58:20;;;;;;;7.15;1.55;;;17.60;59.90;;;;;;5087614;28;20118;-69
2023/10/14 11:00:48;;;;;;;7.03;1.92;;;17.70;60.00;;;;;;5088814;28;20342;-70
2023/10/14 11:03:15;;;;;;;4.95;1.42;;;17.90;60.10;;;;;;5084267;28;20160;-71
2023/10/14 11:05:44;;;;;;;9.63;1.85;;;18.00;60.00;;;;;;5085425;28;20012;-69
2023/10/14 11:08:11;;;;;;;7.95;1.70;;;18.10;60.20;;;;;;5087304;28;20028;-70
2023/10/14 11:10:39;;;;;;;8.77;2.47;;;18.20;60.00;;;;;;5072133;28;20067;-70
2023/10/14 11:13:08;;;;;;;10.02;2.00;;;18.20;60.10;;;;;;5087601;28;20032;-70
2023/10/14 11:15:37;;;;;;;8.48;1.65;;;18.10;60.60;;;;;;5086325;28;20463;-70
2023/10/14 11:18:03;;;;;;;8.23;1.73;;;18.00;61.00;;;;;;5086705;28;20089;-70
2023/10/14 11:20:39;;;;;;;7.25;1.90;;;18.00;61.10;;;;;;5087195;28;20020;-70
2023/10/14 11:23:08;;;;;;;7.97;2.17;;;18.00;60.90;;;;;;5087120;28;20020;-70
2023/10/14 11:25:45;;;;;;;7.97;1.80;;;17.80;60.90;;;;;;5086837;28;20337;-70
2023/10/14 11:28:12;;;;;;;6.13;1.67;;;17.60;61.40;;;;;;5086120;28;20073;-69
2023/10/14 11:30:44;;;;;;;9.57;2.13;;;17.50;61.70;;;;;;5085187;28;20032;-70
2023/10/14 11:33:10;;;;;;;;;;;17.40;62.20;;;;;;5086944;28;20039;-70
2023/10/14 11:35:37;;;;;;;9.45;1.35;;;17.20;62.60;;;;;;5085471;28;20251;-70
2023/10/14 11:38:07;;;;;;;4.93;1.48;;;17.10;62.70;;;;;;5088284;28;20028;-70
2023/10/14 11:40:37;;;;;;;4.38;1.25;;;17.10;61.80;;;;;;5087890;28;20044;-70
2023/10/14 11:43:11;;;;;;;5.13;1.35;;;17.00;61.40;;;;;;5086760;28;20362;-70
2023/10/14 11:45:43;;;;;;;7.55;1.55;;;16.90;60.50;;;;;;5086615;28;20027;-69
2023/10/14 11:48:22;;;;;;;4.90;1.38;;;16.80;60.40;;;;;;5088193;28;20038;-70
2023/10/14 11:50:56;;;;;;;7.03;1.45;;;16.60;60.10;;;;;;5093140;28;20032;-70
2023/10/14 11:53:30;;;;;;;4.78;0.88;;;16.50;60.20;;;;;;5085700;28;20079;-70
2023/10/14 11:56:00;;;;;;;7.25;1.38;;;16.50;60.20;;;;;;5086685;28;20044;-70
2023/10/14 11:58:30;;;;;;;6.25;1.17;;;16.60;60.00;;;;;;5085266;28;20403;-70
2023/10/14 12:00:57;;;;;;;6.97;1.83;;;16.70;59.80;;;;;;5086596;28;20406;-70
2023/10/14 12:03:27;;;;;;;8.75;2.05;;;16.80;59.60;;;;;;5087242;28;20464;-70
2023/10/14 12:05:58;;;;;;;8.00;1.67;;;16.90;59.50;;;;;;5092265;28;20024;-70
2023/10/14 12:08:32;;;;;;;8.88;2.10;;;17.00;59.60;;;;;;5071236;28;20036;-70
2023/10/14 12:10:58;;;;;;;6.15;1.60;;;17.00;59.90;;;;;;5088820;28;20024;-70
2023/10/14 12:13:25;;;;;;;7.07;2.30;;;17.00;60.10;;;;;;5088593;28;20109;-70
2023/10/14 12:15:51;;;;;;;8.63;2.00;;;16.90;60.00;;;;;;5073973;28;20111;-70
2023/10/14 12:18:17;;;;;;;8.13;2.03;;;17.00;60.00;;;;;;5087058;28;20394;-70
2023/10/14 12:20:47;;;;;;;7.57;2.03;;;17.00;59.90;;;;;;5085895;28;20116;-70
2023/10/14 12:23:20;;;;;;;9.77;2.15;;;17.10;60.00;;;;;;5086973;28;20111;-70
2023/10/14 12:25:49;;;;;;;10.15;2.10;;;17.10;60.20;;;;;;5088688;28;20448;-69
2023/10/14 12:28:24;;;;;;;7.75;2.08;;;17.00;60.10;;;;;;5092582;28;20028;-70
2023/10/14 12:30:58;;;;;;;9.43;1.48;;;16.90;60.70;;;;;;5095014;28;20056;-70
2023/10/14 12:33:38;;;;;;;9.88;1.85;;;16.70;61.50;;;;;;5088589;28;20039;-70
2023/10/14 12:36:14;;;;;;;6.63;1.70;;;16.50;62.50;;;;;;5089928;28;20039;-70
2023/10/14 12:38:42;;;;;;;6.85;1.80;;;16.30;63.30;;;;;;5074301;28;20024;-70
2023/10/14 12:41:09;;;;;;;9.25;1.88;;;16.20;64.00;;;;;;5094505;28;20020;-70
2023/10/14 12:43:39;;;;;;;8.43;1.65;;;16.20;64.60;;;;;;5094736;28;20020;-70
2023/10/14 12:46:12;;;;;;;7.70;1.98;;;16.20;65.00;;;;;;5095878;28;20447;-70
2023/10/14 12:48:39;;;;;;;9.48;1.98;;;16.30;65.10;;;;;;5081543;28;20078;-70
2023/10/14 12:51:11;;;;;;;7.35;1.83;;;16.40;65.10;;;;;;5090621;28;20099;-70
2023/10/14 12:53:47;;;;;;;8.43;2.45;;;16.50;65.00;;;;;;5094359;28;20059;-70
2023/10/14 12:56:20;;;;;;;7.68;2.10;;;16.60;64.90;;;;;;5096198;28;20332;-70
2023/10/14 12:58:46;;;;;;;9.38;2.47;;;16.60;64.40;;;;;;5097080;28;20390;-70
2023/10/14 13:01:33;;;;;;;7.38;2.15;;;16.50;64.30;;;;;;5078614;28;20017;-70
2023/10/14 13:04:00;;;;;;;7.00;1.77;;;16.50;64.40;;;;;;5079233;28;20071;-70
2023/10/14 13:06:26;;;;;;;11.35;2.35;;;16.50;64.40;;;;;;5088889;28;20116;-69
2023/10/14 13:09:00;;;;;;;6.10;1.83;;;16.50;64.20;;;;;;5080416;28;20495;-69
2023/10/14 13:11:28;;;;;;;8.48;1.85;;;16.50;64.10;;;;;;5097187;28;20306;-70
2023/10/14 13:13:55;;;;;;;6.43;1.60;;;16.40;64.10;;;;;;5085575;28;20052;-70
2023/10/14 13:16:23;;;;;;;7.88;1.80;;;16.40;64.20;;;;;;5090036;28;20432;-69
2023/10/14 13:18:50;;;;;;;8.65;1.60;;;16.30;63.70;;;;;;5074615;28;20039;-69
2023/10/14 13:21:21;;;;;;;6.40;1.40;;;16.30;63.70;;;;;;5075825;28;20039;-69
2023/10/14 13:23:47;;;;;;;7.00;1.75;;;16.30;63.70;;;;;;5078297;28;20395;-70
2023/10/14 13:26:15;;;;;;;9.00;1.90;;;16.10;63.70;;;;;;5076697;28;20027;-70
2023/10/14 13:28:45;;;;;;;8.30;1.77;;;16.10;64.20;;;;;;5076215;28;20372;-69
2023/10/14 13:31:15;;;;;;;8.98;1.73;;;16.00;64.80;;;;;;5066223;28;20024;-70